sensor_id;sensor_type;location;lat;lon;timestamp;P1;durP1;ratioP1;P2;durP2;ratioP2
22622;SDS011;11478;51.094;7.030;2023-05-07T00:00:08;10.95;;;4.80;;
22622;SDS011;11478;51.094;7.030;2023-05-07T00:02:37;7.13;;;4.10;;
22622;SDS011;11478;51.094;7.030;2023-05-07T00:05:03;8.82;;;4.03;;
22622;SDS011;11478;51.094;7.030;2023-05-07T00:07:31;6.10;;;4.30;;
22622;SDS011;11478;51.094;7.030;2023-05-07T00:09:57;11.18;;;4.63;;
22622;SDS011;11478;51.094;7.030;2023-05-07T00:12:25;13.68;;;4.70;;
22622;SDS011;11478;51.094;7.030;2023-05-07T00:14:51;12.60;;;4.80;;
22622;SDS011;11478;51.094;7.030;2023-05-07T00:17:22;6.95;;;3.97;;
22622;SDS011;11478;51.094;7.030;2023-05-07T00:19:48;7.07;;;4.28;;
22622;SDS011;11478;51.094;7.030;2023-05-07T00:22:16;9.88;;;4.07;;
22622;SDS011;11478;51.094;7.030;2023-05-07T00:24:42;11.93;;;5.03;;
22622;SDS011;11478;51.094;7.030;2023-05-07T00:27:12;11.32;;;5.18;;
22622;SDS011;11478;51.094;7.030;2023-05-07T00:29:38;10.07;;;4.30;;
22622;SDS011;11478;51.094;7.030;2023-05-07T00:32:06;7.97;;;4.60;;
22622;SDS011;11478;51.094;7.030;2023-05-07T00:34:33;13.32;;;4.70;;
22622;SDS011;11478;51.094;7.030;2023-05-07T00:37:00;7.30;;;4.70;;
22622;SDS011;11478;51.094;7.030;2023-05-07T00:41:56;12.00;;;4.90;;
22622;SDS011;11478;51.094;7.030;2023-05-07T00:44:22;10.25;;;4.68;;
22622;SDS011;11478;51.094;7.030;2023-05-07T00:46:48;10.15;;;5.15;;
22622;SDS011;11478;51.094;7.030;2023-05-07T00:49:19;8.70;;;4.43;;
22622;SDS011;11478;51.094;7.030;2023-05-07T00:51:45;8.27;;;4.30;;
22622;SDS011;11478;51.094;7.030;2023-05-07T00:54:13;7.03;;;4.43;;
22622;SDS011;11478;51.094;7.030;2023-05-07T00:56:39;6.70;;;4.43;;
22622;SDS011;11478;51.094;7.030;2023-05-07T00:59:19;9.48;;;4.93;;
22622;SDS011;11478;51.094;7.030;2023-05-07T01:01:45;7.53;;;4.78;;
22622;SDS011;11478;51.094;7.030;2023-05-07T01:04:18;8.20;;;4.57;;
22622;SDS011;11478;51.094;7.030;2023-05-07T01:06:45;7.60;;;4.60;;
22622;SDS011;11478;51.094;7.030;2023-05-07T01:09:23;7.72;;;4.40;;
22622;SDS011;11478;51.094;7.030;2023-05-07T01:11:49;9.32;;;5.22;;
22622;SDS011;11478;51.094;7.030;2023-05-07T01:14:18;5.88;;;4.32;;
22622;SDS011;11478;51.094;7.030;2023-05-07T01:16:46;9.07;;;5.00;;
22622;SDS011;11478;51.094;7.030;2023-05-07T01:19:21;11.77;;;5.15;;
22622;SDS011;11478;51.094;7.030;2023-05-07T01:21:48;6.40;;;4.25;;
22622;SDS011;11478;51.094;7.030;2023-05-07T01:24:21;12.02;;;4.57;;
22622;SDS011;11478;51.094;7.030;2023-05-07T01:26:47;11.38;;;5.03;;
22622;SDS011;11478;51.094;7.030;2023-05-07T01:29:13;9.55;;;5.05;;
22622;SDS011;11478;51.094;7.030;2023-05-07T01:31:39;7.13;;;4.75;;
22622;SDS011;11478;51.094;7.030;2023-05-07T01:34:08;7.68;;;4.70;;
22622;SDS011;11478;51.094;7.030;2023-05-07T01:36:36;7.20;;;4.35;;
22622;SDS011;11478;51.094;7.030;2023-05-07T01:39:03;6.47;;;4.32;;
22622;SDS011;11478;51.094;7.030;2023-05-07T01:41:31;5.47;;;4.45;;
22622;SDS011;11478;51.094;7.030;2023-05-07T01:46:28;14.68;;;4.70;;
22622;SDS011;11478;51.094;7.030;2023-05-07T01:48:55;13.68;;;4.57;;
22622;SDS011;11478;51.094;7.030;2023-05-07T01:51:21;8.45;;;4.40;;
22622;SDS011;11478;51.094;7.030;2023-05-07T01:53:53;7.53;;;4.30;;
22622;SDS011;11478;51.094;7.030;2023-05-07T01:56:19;8.63;;;4.30;;
22622;SDS011;11478;51.094;7.030;2023-05-07T01:58:48;9.73;;;4.30;;
22622;SDS011;11478;51.094;7.030;2023-05-07T02:01:14;7.35;;;4.30;;
22622;SDS011;11478;51.094;7.030;2023-05-07T02:03:44;9.57;;;4.60;;
22622;SDS011;11478;51.094;7.030;2023-05-07T02:06:10;7.55;;;3.92;;
22622;SDS011;11478;51.094;7.030;2023-05-07T02:08:46;6.55;;;3.80;;
22622;SDS011;11478;51.094;7.030;2023-05-07T02:11:12;8.50;;;4.10;;
22622;SDS011;11478;51.094;7.030;2023-05-07T02:13:41;12.60;;;4.35;;
22622;SDS011;11478;51.094;7.030;2023-05-07T02:16:07;9.80;;;4.10;;
22622;SDS011;11478;51.094;7.030;2023-05-07T02:18:34;12.82;;;4.53;;
22622;SDS011;11478;51.094;7.030;2023-05-07T02:21:00;13.65;;;3.90;;
22622;SDS011;11478;51.094;7.030;2023-05-07T02:23:27;8.55;;;4.30;;
22622;SDS011;11478;51.094;7.030;2023-05-07T02:25:53;7.45;;;3.85;;
22622;SDS011;11478;51.094;7.030;2023-05-07T02:28:24;6.78;;;3.70;;
22622;SDS011;11478;51.094;7.030;2023-05-07T02:30:50;9.02;;;3.75;;
22622;SDS011;11478;51.094;7.030;2023-05-07T02:33:16;6.65;;;3.80;;
22622;SDS011;11478;51.094;7.030;2023-05-07T02:35:43;5.28;;;3.72;;
22622;SDS011;11478;51.094;7.030;2023-05-07T02:38:09;14.23;;;4.18;;
22622;SDS011;11478;51.094;7.030;2023-05-07T02:40:37;9.82;;;3.50;;
22622;SDS011;11478;51.094;7.030;2023-05-07T02:43:04;11.60;;;3.65;;
22622;SDS011;11478;51.094;7.030;2023-05-07T02:45:33;8.07;;;4.10;;
22622;SDS011;11478;51.094;7.030;2023-05-07T02:47:59;5.97;;;3.47;;
22622;SDS011;11478;51.094;7.030;2023-05-07T02:50:24;5.68;;;3.20;;
22622;SDS011;11478;51.094;7.030;2023-05-07T02:52:51;4.90;;;3.05;;
22622;SDS011;11478;51.094;7.030;2023-05-07T02:55:19;11.18;;;3.70;;
22622;SDS011;11478;51.094;7.030;2023-05-07T02:57:45;12.60;;;3.90;;
22622;SDS011;11478;51.094;7.030;2023-05-07T03:00:12;9.88;;;3.95;;
22622;SDS011;11478;51.094;7.030;2023-05-07T03:02:38;4.88;;;3.55;;
22622;SDS011;11478;51.094;7.030;2023-05-07T03:05:10;7.85;;;3.47;;
22622;SDS011;11478;51.094;7.030;2023-05-07T03:07:37;6.53;;;3.35;;
22622;SDS011;11478;51.094;7.030;2023-05-07T03:10:03;6.45;;;3.15;;
22622;SDS011;11478;51.094;7.030;2023-05-07T03:12:30;6.15;;;3.05;;
22622;SDS011;11478;51.094;7.030;2023-05-07T03:14:58;7.25;;;3.28;;
22622;SDS011;11478;51.094;7.030;2023-05-07T03:17:24;6.88;;;3.45;;
22622;SDS011;11478;51.094;7.030;2023-05-07T03:19:53;7.95;;;2.97;;
22622;SDS011;11478;51.094;7.030;2023-05-07T03:22:19;7.35;;;3.00;;
22622;SDS011;11478;51.094;7.030;2023-05-07T03:24:46;9.93;;;3.95;;
22622;SDS011;11478;51.094;7.030;2023-05-07T03:27:12;6.28;;;3.28;;
22622;SDS011;11478;51.094;7.030;2023-05-07T03:29:39;9.15;;;3.40;;
22622;SDS011;11478;51.094;7.030;2023-05-07T03:32:05;5.63;;;3.13;;
22622;SDS011;11478;51.094;7.030;2023-05-07T03:34:32;6.53;;;3.25;;
22622;SDS011;11478;51.094;7.030;2023-05-07T03:36:58;8.60;;;3.28;;
22622;SDS011;11478;51.094;7.030;2023-05-07T03:39:31;10.48;;;3.60;;
22622;SDS011;11478;51.094;7.030;2023-05-07T03:41:57;7.35;;;3.47;;
22622;SDS011;11478;51.094;7.030;2023-05-07T03:44:25;5.75;;;3.30;;
22622;SDS011;11478;51.094;7.030;2023-05-07T03:46:51;6.80;;;3.22;;
22622;SDS011;11478;51.094;7.030;2023-05-07T03:49:18;10.30;;;3.45;;
22622;SDS011;11478;51.094;7.030;2023-05-07T03:51:44;7.28;;;3.17;;
22622;SDS011;11478;51.094;7.030;2023-05-07T03:54:12;5.78;;;3.13;;
22622;SDS011;11478;51.094;7.030;2023-05-07T03:56:38;8.23;;;3.00;;
22622;SDS011;11478;51.094;7.030;2023-05-07T03:59:04;12.50;;;3.13;;
22622;SDS011;11478;51.094;7.030;2023-05-07T04:01:29;5.93;;;3.10;;
22622;SDS011;11478;51.094;7.030;2023-05-07T04:03:55;7.13;;;2.80;;
22622;SDS011;11478;51.094;7.030;2023-05-07T04:06:21;7.57;;;3.50;;
22622;SDS011;11478;51.094;7.030;2023-05-07T04:08:49;13.43;;;3.38;;
22622;SDS011;11478;51.094;7.030;2023-05-07T04:11:14;8.93;;;3.40;;
22622;SDS011;11478;51.094;7.030;2023-05-07T04:13:47;9.43;;;3.50;;
22622;SDS011;11478;51.094;7.030;2023-05-07T04:16:13;8.70;;;3.45;;
22622;SDS011;11478;51.094;7.030;2023-05-07T04:18:46;7.47;;;3.30;;
22622;SDS011;11478;51.094;7.030;2023-05-07T04:21:15;7.88;;;3.70;;
22622;SDS011;11478;51.094;7.030;2023-05-07T04:23:48;9.27;;;3.25;;
22622;SDS011;11478;51.094;7.030;2023-05-07T04:26:14;8.43;;;3.50;;
22622;SDS011;11478;51.094;7.030;2023-05-07T04:28:42;4.63;;;3.20;;
22622;SDS011;11478;51.094;7.030;2023-05-07T04:31:07;6.85;;;3.30;;
22622;SDS011;11478;51.094;7.030;2023-05-07T04:33:34;5.53;;;3.58;;
22622;SDS011;11478;51.094;7.030;2023-05-07T04:36:04;6.50;;;3.10;;
22622;SDS011;11478;51.094;7.030;2023-05-07T04:38:30;6.43;;;3.20;;
22622;SDS011;11478;51.094;7.030;2023-05-07T04:41:03;5.30;;;3.08;;
22622;SDS011;11478;51.094;7.030;2023-05-07T04:43:30;9.55;;;3.28;;
22622;SDS011;11478;51.094;7.030;2023-05-07T04:45:56;4.20;;;3.20;;
22622;SDS011;11478;51.094;7.030;2023-05-07T04:48:22;3.95;;;3.05;;
22622;SDS011;11478;51.094;7.030;2023-05-07T04:50:48;9.75;;;3.40;;
22622;SDS011;11478;51.094;7.030;2023-05-07T04:53:17;5.40;;;3.10;;
22622;SDS011;11478;51.094;7.030;2023-05-07T04:55:43;7.05;;;3.03;;
22622;SDS011;11478;51.094;7.030;2023-05-07T04:58:10;3.75;;;2.75;;
22622;SDS011;11478;51.094;7.030;2023-05-07T05:00:37;11.63;;;3.42;;
22622;SDS011;11478;51.094;7.030;2023-05-07T05:03:07;7.65;;;2.97;;
22622;SDS011;11478;51.094;7.030;2023-05-07T05:05:34;5.38;;;2.92;;
22622;SDS011;11478;51.094;7.030;2023-05-07T05:08:00;7.25;;;3.05;;
22622;SDS011;11478;51.094;7.030;2023-05-07T05:10:28;7.03;;;3.20;;
22622;SDS011;11478;51.094;7.030;2023-05-07T05:12:54;6.63;;;3.55;;
22622;SDS011;11478;51.094;7.030;2023-05-07T05:15:21;11.45;;;3.05;;
22622;SDS011;11478;51.094;7.030;2023-05-07T05:17:47;8.77;;;3.00;;
22622;SDS011;11478;51.094;7.030;2023-05-07T05:20:20;7.35;;;3.30;;
22622;SDS011;11478;51.094;7.030;2023-05-07T05:22:46;5.57;;;3.38;;
22622;SDS011;11478;51.094;7.030;2023-05-07T05:25:13;3.88;;;3.05;;
22622;SDS011;11478;51.094;7.030;2023-05-07T05:27:39;4.43;;;2.70;;
22622;SDS011;11478;51.094;7.030;2023-05-07T05:30:19;7.78;;;3.33;;
22622;SDS011;11478;51.094;7.030;2023-05-07T05:32:45;4.20;;;2.72;;
22622;SDS011;11478;51.094;7.030;2023-05-07T05:35:16;4.90;;;2.70;;
22622;SDS011;11478;51.094;7.030;2023-05-07T05:40:12;4.25;;;2.55;;
22622;SDS011;11478;51.094;7.030;2023-05-07T05:42:38;6.10;;;3.10;;
22622;SDS011;11478;51.094;7.030;2023-05-07T05:45:03;4.85;;;3.10;;
22622;SDS011;11478;51.094;7.030;2023-05-07T05:47:32;5.85;;;2.88;;
22622;SDS011;11478;51.094;7.030;2023-05-07T05:49:57;5.97;;;2.88;;
22622;SDS011;11478;51.094;7.030;2023-05-07T05:52:26;8.02;;;3.40;;
22622;SDS011;11478;51.094;7.030;2023-05-07T05:54:51;10.52;;;2.90;;
22622;SDS011;11478;51.094;7.030;2023-05-07T05:57:18;8.27;;;3.35;;
22622;SDS011;11478;51.094;7.030;2023-05-07T06:02:17;7.07;;;3.25;;
22622;SDS011;11478;51.094;7.030;2023-05-07T06:04:43;5.38;;;3.60;;
22622;SDS011;11478;51.094;7.030;2023-05-07T06:07:09;3.53;;;2.85;;
22622;SDS011;11478;51.094;7.030;2023-05-07T06:09:51;7.60;;;3.70;;
22622;SDS011;11478;51.094;7.030;2023-05-07T06:12:17;12.02;;;3.67;;
22622;SDS011;11478;51.094;7.030;2023-05-07T06:14:43;5.60;;;3.53;;
22622;SDS011;11478;51.094;7.030;2023-05-07T06:17:09;5.38;;;3.80;;
22622;SDS011;11478;51.094;7.030;2023-05-07T06:19:36;5.90;;;3.17;;
22622;SDS011;11478;51.094;7.030;2023-05-07T06:22:01;5.50;;;3.10;;
22622;SDS011;11478;51.094;7.030;2023-05-07T06:27:14;6.75;;;3.40;;
22622;SDS011;11478;51.094;7.030;2023-05-07T06:29:43;7.10;;;3.63;;
22622;SDS011;11478;51.094;7.030;2023-05-07T06:32:13;4.63;;;3.60;;
22622;SDS011;11478;51.094;7.030;2023-05-07T06:34:56;5.32;;;3.45;;
22622;SDS011;11478;51.094;7.030;2023-05-07T06:40:03;4.78;;;3.17;;
22622;SDS011;11478;51.094;7.030;2023-05-07T06:42:37;6.03;;;3.22;;
22622;SDS011;11478;51.094;7.030;2023-05-07T06:45:03;5.80;;;3.35;;
22622;SDS011;11478;51.094;7.030;2023-05-07T06:47:30;8.80;;;3.28;;
22622;SDS011;11478;51.094;7.030;2023-05-07T06:49:55;9.77;;;4.00;;
22622;SDS011;11478;51.094;7.030;2023-05-07T06:52:25;8.38;;;3.97;;
22622;SDS011;11478;51.094;7.030;2023-05-07T06:54:51;5.40;;;3.47;;
22622;SDS011;11478;51.094;7.030;2023-05-07T06:57:17;7.43;;;3.30;;
22622;SDS011;11478;51.094;7.030;2023-05-07T06:59:43;5.32;;;3.20;;
22622;SDS011;11478;51.094;7.030;2023-05-07T07:02:11;8.02;;;3.25;;
22622;SDS011;11478;51.094;7.030;2023-05-07T07:04:36;6.75;;;3.33;;
22622;SDS011;11478;51.094;7.030;2023-05-07T07:07:04;5.50;;;3.05;;
22622;SDS011;11478;51.094;7.030;2023-05-07T07:09:30;5.47;;;2.88;;
22622;SDS011;11478;51.094;7.030;2023-05-07T07:12:02;6.90;;;3.00;;
22622;SDS011;11478;51.094;7.030;2023-05-07T07:14:28;6.25;;;2.70;;
22622;SDS011;11478;51.094;7.030;2023-05-07T07:16:54;6.18;;;2.70;;
22622;SDS011;11478;51.094;7.030;2023-05-07T07:19:20;5.28;;;2.80;;
22622;SDS011;11478;51.094;7.030;2023-05-07T07:22:03;9.95;;;2.65;;
22622;SDS011;11478;51.094;7.030;2023-05-07T07:24:29;6.30;;;2.92;;
22622;SDS011;11478;51.094;7.030;2023-05-07T07:27:07;9.45;;;2.95;;
22622;SDS011;11478;51.094;7.030;2023-05-07T07:29:33;4.18;;;2.70;;
22622;SDS011;11478;51.094;7.030;2023-05-07T07:34:29;4.72;;;2.20;;
22622;SDS011;11478;51.094;7.030;2023-05-07T07:40:03;5.97;;;2.20;;
22622;SDS011;11478;51.094;7.030;2023-05-07T07:42:30;7.07;;;2.08;;
22622;SDS011;11478;51.094;7.030;2023-05-07T07:44:57;5.78;;;2.35;;
22622;SDS011;11478;51.094;7.030;2023-05-07T07:47:23;8.55;;;2.70;;
22622;SDS011;11478;51.094;7.030;2023-05-07T07:49:51;8.52;;;2.15;;
22622;SDS011;11478;51.094;7.030;2023-05-07T07:52:16;3.58;;;2.30;;
22622;SDS011;11478;51.094;7.030;2023-05-07T07:54:44;6.93;;;2.08;;
22622;SDS011;11478;51.094;7.030;2023-05-07T07:57:09;6.53;;;2.08;;
22622;SDS011;11478;51.094;7.030;2023-05-07T07:59:36;3.08;;;2.05;;
22622;SDS011;11478;51.094;7.030;2023-05-07T08:02:01;8.48;;;1.85;;
22622;SDS011;11478;51.094;7.030;2023-05-07T08:04:27;4.38;;;1.92;;
22622;SDS011;11478;51.094;7.030;2023-05-07T08:06:53;5.88;;;1.90;;
22622;SDS011;11478;51.094;7.030;2023-05-07T08:09:22;2.42;;;1.52;;
22622;SDS011;11478;51.094;7.030;2023-05-07T08:11:48;4.30;;;2.30;;
22622;SDS011;11478;51.094;7.030;2023-05-07T08:16:45;5.22;;;1.70;;
22622;SDS011;11478;51.094;7.030;2023-05-07T08:19:15;3.55;;;1.85;;
22622;SDS011;11478;51.094;7.030;2023-05-07T08:21:41;3.72;;;1.75;;
22622;SDS011;11478;51.094;7.030;2023-05-07T08:24:10;6.18;;;1.60;;
22622;SDS011;11478;51.094;7.030;2023-05-07T08:26:37;7.43;;;1.70;;
22622;SDS011;11478;51.094;7.030;2023-05-07T08:29:05;5.63;;;2.00;;
22622;SDS011;11478;51.094;7.030;2023-05-07T08:31:31;2.58;;;1.70;;
22622;SDS011;11478;51.094;7.030;2023-05-07T08:33:57;4.90;;;2.08;;
22622;SDS011;11478;51.094;7.030;2023-05-07T08:36:24;4.32;;;1.88;;
22622;SDS011;11478;51.094;7.030;2023-05-07T08:38:53;6.28;;;1.85;;
22622;SDS011;11478;51.094;7.030;2023-05-07T08:41:19;6.00;;;1.55;;
22622;SDS011;11478;51.094;7.030;2023-05-07T08:43:51;5.78;;;2.00;;
22622;SDS011;11478;51.094;7.030;2023-05-07T08:46:21;6.60;;;1.80;;
22622;SDS011;11478;51.094;7.030;2023-05-07T08:48:50;3.55;;;1.55;;
22622;SDS011;11478;51.094;7.030;2023-05-07T08:51:17;3.05;;;1.80;;
22622;SDS011;11478;51.094;7.030;2023-05-07T08:53:55;2.17;;;1.50;;
22622;SDS011;11478;51.094;7.030;2023-05-07T08:56:21;2.97;;;1.67;;
22622;SDS011;11478;51.094;7.030;2023-05-07T08:58:47;2.28;;;1.88;;
22622;SDS011;11478;51.094;7.030;2023-05-07T09:01:13;4.93;;;1.75;;
22622;SDS011;11478;51.094;7.030;2023-05-07T09:03:45;3.55;;;1.70;;
22622;SDS011;11478;51.094;7.030;2023-05-07T09:06:12;3.88;;;1.60;;
22622;SDS011;11478;51.094;7.030;2023-05-07T09:08:38;3.30;;;1.50;;
22622;SDS011;11478;51.094;7.030;2023-05-07T09:11:04;1.63;;;1.52;;
22622;SDS011;11478;51.094;7.030;2023-05-07T09:16:11;2.95;;;1.60;;
22622;SDS011;11478;51.094;7.030;2023-05-07T09:18:42;3.67;;;1.60;;
22622;SDS011;11478;51.094;7.030;2023-05-07T09:21:11;3.90;;;1.70;;
22622;SDS011;11478;51.094;7.030;2023-05-07T09:23:41;3.70;;;1.60;;
22622;SDS011;11478;51.094;7.030;2023-05-07T09:26:07;8.00;;;1.70;;
22622;SDS011;11478;51.094;7.030;2023-05-07T09:28:41;2.60;;;1.73;;
22622;SDS011;11478;51.094;7.030;2023-05-07T09:31:07;2.92;;;1.55;;
22622;SDS011;11478;51.094;7.030;2023-05-07T09:33:34;3.15;;;1.58;;
22622;SDS011;11478;51.094;7.030;2023-05-07T09:36:04;2.13;;;1.33;;
22622;SDS011;11478;51.094;7.030;2023-05-07T09:38:34;3.20;;;1.40;;
22622;SDS011;11478;51.094;7.030;2023-05-07T09:41:19;4.80;;;1.40;;
22622;SDS011;11478;51.094;7.030;2023-05-07T09:46:19;5.45;;;1.60;;
22622;SDS011;11478;51.094;7.030;2023-05-07T09:48:52;2.65;;;1.48;;
22622;SDS011;11478;51.094;7.030;2023-05-07T09:51:38;1.98;;;1.35;;
22622;SDS011;11478;51.094;7.030;2023-05-07T09:54:08;3.92;;;1.77;;
22622;SDS011;11478;51.094;7.030;2023-05-07T09:56:46;4.10;;;1.58;;
22622;SDS011;11478;51.094;7.030;2023-05-07T09:59:14;2.60;;;1.40;;
22622;SDS011;11478;51.094;7.030;2023-05-07T10:01:42;2.97;;;1.42;;
22622;SDS011;11478;51.094;7.030;2023-05-07T10:04:09;1.90;;;1.50;;
22622;SDS011;11478;51.094;7.030;2023-05-07T10:06:36;6.18;;;1.40;;
22622;SDS011;11478;51.094;7.030;2023-05-07T10:09:03;2.47;;;1.45;;
22622;SDS011;11478;51.094;7.030;2023-05-07T10:11:36;3.25;;;1.40;;
22622;SDS011;11478;51.094;7.030;2023-05-07T10:14:03;3.42;;;1.50;;
22622;SDS011;11478;51.094;7.030;2023-05-07T10:16:36;6.70;;;1.70;;
22622;SDS011;11478;51.094;7.030;2023-05-07T10:19:06;4.65;;;1.60;;
22622;SDS011;11478;51.094;7.030;2023-05-07T10:21:44;2.92;;;1.23;;
22622;SDS011;11478;51.094;7.030;2023-05-07T10:26:47;6.97;;;1.77;;
22622;SDS011;11478;51.094;7.030;2023-05-07T10:35:00;5.40;;;1.40;;
22622;SDS011;11478;51.094;7.030;2023-05-07T10:40:20;1.88;;;1.20;;
22622;SDS011;11478;51.094;7.030;2023-05-07T10:42:53;4.45;;;1.15;;
22622;SDS011;11478;51.094;7.030;2023-05-07T10:45:23;1.85;;;1.00;;
22622;SDS011;11478;51.094;7.030;2023-05-07T10:48:11;2.30;;;1.05;;
22622;SDS011;11478;51.094;7.030;2023-05-07T10:50:37;4.45;;;1.35;;
22622;SDS011;11478;51.094;7.030;2023-05-07T11:04:22;4.75;;;1.30;;
22622;SDS011;11478;51.094;7.030;2023-05-07T11:09:54;4.03;;;1.20;;
22622;SDS011;11478;51.094;7.030;2023-05-07T11:15:07;3.50;;;1.35;;
22622;SDS011;11478;51.094;7.030;2023-05-07T11:17:58;4.53;;;1.20;;
22622;SDS011;11478;51.094;7.030;2023-05-07T11:26:03;3.10;;;1.30;;
22622;SDS011;11478;51.094;7.030;2023-05-07T11:28:30;1.80;;;1.10;;
22622;SDS011;11478;51.094;7.030;2023-05-07T11:31:01;2.22;;;1.10;;
22622;SDS011;11478;51.094;7.030;2023-05-07T11:33:30;2.63;;;1.40;;
22622;SDS011;11478;51.094;7.030;2023-05-07T11:35:57;3.00;;;1.40;;
22622;SDS011;11478;51.094;7.030;2023-05-07T11:38:23;1.75;;;1.35;;
22622;SDS011;11478;51.094;7.030;2023-05-07T11:43:17;3.55;;;1.30;;
22622;SDS011;11478;51.094;7.030;2023-05-07T11:45:43;4.10;;;1.10;;
22622;SDS011;11478;51.094;7.030;2023-05-07T11:48:13;5.18;;;1.20;;
22622;SDS011;11478;51.094;7.030;2023-05-07T11:50:53;1.65;;;1.20;;
22622;SDS011;11478;51.094;7.030;2023-05-07T11:53:25;2.63;;;1.20;;
22622;SDS011;11478;51.094;7.030;2023-05-07T11:55:53;5.78;;;1.40;;
22622;SDS011;11478;51.094;7.030;2023-05-07T11:58:23;4.45;;;1.60;;
22622;SDS011;11478;51.094;7.030;2023-05-07T12:00:50;4.28;;;1.40;;
22622;SDS011;11478;51.094;7.030;2023-05-07T12:03:18;3.35;;;1.30;;
22622;SDS011;11478;51.094;7.030;2023-05-07T12:05:45;3.28;;;1.20;;
22622;SDS011;11478;51.094;7.030;2023-05-07T12:08:23;2.17;;;1.17;;
22622;SDS011;11478;51.094;7.030;2023-05-07T12:10:49;3.10;;;1.35;;
22622;SDS011;11478;51.094;7.030;2023-05-07T12:13:21;1.80;;;1.30;;
22622;SDS011;11478;51.094;7.030;2023-05-07T12:15:51;1.88;;;1.23;;
22622;SDS011;11478;51.094;7.030;2023-05-07T12:18:19;3.05;;;1.30;;
22622;SDS011;11478;51.094;7.030;2023-05-07T12:20:45;2.30;;;1.42;;
22622;SDS011;11478;51.094;7.030;2023-05-07T12:23:12;2.13;;;1.27;;
22622;SDS011;11478;51.094;7.030;2023-05-07T12:25:40;2.33;;;1.17;;
22622;SDS011;11478;51.094;7.030;2023-05-07T12:28:15;1.63;;;1.30;;
22622;SDS011;11478;51.094;7.030;2023-05-07T12:30:43;2.58;;;1.20;;
22622;SDS011;11478;51.094;7.030;2023-05-07T12:33:10;4.35;;;1.30;;
22622;SDS011;11478;51.094;7.030;2023-05-07T12:35:37;3.03;;;1.27;;
22622;SDS011;11478;51.094;7.030;2023-05-07T12:38:09;2.17;;;1.08;;
22622;SDS011;11478;51.094;7.030;2023-05-07T12:40:46;2.15;;;1.02;;
22622;SDS011;11478;51.094;7.030;2023-05-07T12:43:28;2.47;;;1.30;;
22622;SDS011;11478;51.094;7.030;2023-05-07T12:45:56;2.10;;;1.25;;
22622;SDS011;11478;51.094;7.030;2023-05-07T12:48:24;3.20;;;1.30;;
22622;SDS011;11478;51.094;7.030;2023-05-07T12:50:56;1.35;;;1.20;;
22622;SDS011;11478;51.094;7.030;2023-05-07T12:53:24;2.95;;;1.30;;
22622;SDS011;11478;51.094;7.030;2023-05-07T12:58:26;1.42;;;1.15;;
22622;SDS011;11478;51.094;7.030;2023-05-07T13:01:04;2.63;;;1.42;;
22622;SDS011;11478;51.094;7.030;2023-05-07T13:03:33;2.00;;;1.10;;
22622;SDS011;11478;51.094;7.030;2023-05-07T13:06:01;3.33;;;1.50;;
22622;SDS011;11478;51.094;7.030;2023-05-07T13:08:30;5.22;;;1.48;;
22622;SDS011;11478;51.094;7.030;2023-05-07T13:10:58;1.67;;;1.02;;
22622;SDS011;11478;51.094;7.030;2023-05-07T13:13:25;2.80;;;1.38;;
22622;SDS011;11478;51.094;7.030;2023-05-07T13:15:51;3.00;;;1.20;;
22622;SDS011;11478;51.094;7.030;2023-05-07T13:18:18;3.42;;;1.60;;
22622;SDS011;11478;51.094;7.030;2023-05-07T13:20:44;2.92;;;1.33;;
22622;SDS011;11478;51.094;7.030;2023-05-07T13:23:13;2.63;;;1.50;;
22622;SDS011;11478;51.094;7.030;2023-05-07T13:25:39;2.08;;;1.10;;
22622;SDS011;11478;51.094;7.030;2023-05-07T13:28:07;7.97;;;6.22;;
22622;SDS011;11478;51.094;7.030;2023-05-07T13:30:33;5.70;;;4.70;;
22622;SDS011;11478;51.094;7.030;2023-05-07T13:33:00;5.57;;;1.77;;
22622;SDS011;11478;51.094;7.030;2023-05-07T13:35:26;2.40;;;1.40;;
22622;SDS011;11478;51.094;7.030;2023-05-07T13:37:52;4.57;;;1.45;;
22622;SDS011;11478;51.094;7.030;2023-05-07T13:40:22;2.10;;;1.45;;
22622;SDS011;11478;51.094;7.030;2023-05-07T13:42:48;5.00;;;1.77;;
22622;SDS011;11478;51.094;7.030;2023-05-07T13:45:15;5.10;;;1.90;;
22622;SDS011;11478;51.094;7.030;2023-05-07T13:47:42;2.22;;;1.60;;
22622;SDS011;11478;51.094;7.030;2023-05-07T13:50:09;5.40;;;2.15;;
22622;SDS011;11478;51.094;7.030;2023-05-07T13:52:43;3.88;;;1.85;;
22622;SDS011;11478;51.094;7.030;2023-05-07T13:55:15;3.67;;;2.20;;
22622;SDS011;11478;51.094;7.030;2023-05-07T13:57:53;4.75;;;2.25;;
22622;SDS011;11478;51.094;7.030;2023-05-07T14:00:22;5.88;;;2.33;;
22622;SDS011;11478;51.094;7.030;2023-05-07T14:02:58;5.82;;;2.58;;
22622;SDS011;11478;51.094;7.030;2023-05-07T14:05:24;3.50;;;2.22;;
22622;SDS011;11478;51.094;7.030;2023-05-07T14:07:54;4.18;;;2.38;;
22622;SDS011;11478;51.094;7.030;2023-05-07T14:10:25;6.55;;;2.40;;
22622;SDS011;11478;51.094;7.030;2023-05-07T14:12:53;3.97;;;1.80;;
22622;SDS011;11478;51.094;7.030;2023-05-07T14:15:19;3.83;;;1.88;;
22622;SDS011;11478;51.094;7.030;2023-05-07T14:17:46;3.83;;;1.90;;
22622;SDS011;11478;51.094;7.030;2023-05-07T14:20:13;2.05;;;1.40;;
22622;SDS011;11478;51.094;7.030;2023-05-07T14:22:40;4.28;;;2.53;;
22622;SDS011;11478;51.094;7.030;2023-05-07T14:25:08;2.90;;;2.00;;
22622;SDS011;11478;51.094;7.030;2023-05-07T14:27:35;5.47;;;2.00;;
22622;SDS011;11478;51.094;7.030;2023-05-07T14:30:01;3.88;;;1.80;;
22622;SDS011;11478;51.094;7.030;2023-05-07T14:32:30;4.10;;;1.70;;
22622;SDS011;11478;51.094;7.030;2023-05-07T14:34:57;2.17;;;1.90;;
22622;SDS011;11478;51.094;7.030;2023-05-07T14:37:24;5.43;;;1.70;;
22622;SDS011;11478;51.094;7.030;2023-05-07T14:39:50;3.42;;;2.03;;
22622;SDS011;11478;51.094;7.030;2023-05-07T14:42:17;5.25;;;3.25;;
22622;SDS011;11478;51.094;7.030;2023-05-07T14:44:49;6.95;;;3.20;;
22622;SDS011;11478;51.094;7.030;2023-05-07T14:47:21;8.23;;;3.00;;
22622;SDS011;11478;51.094;7.030;2023-05-07T14:49:53;5.57;;;3.10;;
22622;SDS011;11478;51.094;7.030;2023-05-07T14:52:20;5.68;;;3.30;;
22622;SDS011;11478;51.094;7.030;2023-05-07T14:54:48;5.18;;;2.88;;
22622;SDS011;11478;51.094;7.030;2023-05-07T14:57:20;4.18;;;2.83;;
22622;SDS011;11478;51.094;7.030;2023-05-07T14:59:46;8.05;;;3.10;;
22622;SDS011;11478;51.094;7.030;2023-05-07T15:02:12;11.75;;;3.03;;
22622;SDS011;11478;51.094;7.030;2023-05-07T15:04:41;4.32;;;2.85;;
22622;SDS011;11478;51.094;7.030;2023-05-07T15:07:11;4.68;;;3.15;;
22622;SDS011;11478;51.094;7.030;2023-05-07T15:12:16;9.85;;;3.55;;
22622;SDS011;11478;51.094;7.030;2023-05-07T15:14:44;6.65;;;3.70;;
22622;SDS011;11478;51.094;7.030;2023-05-07T15:17:10;9.25;;;3.55;;
22622;SDS011;11478;51.094;7.030;2023-05-07T15:19:37;5.22;;;3.10;;
22622;SDS011;11478;51.094;7.030;2023-05-07T15:22:03;6.43;;;3.50;;
22622;SDS011;11478;51.094;7.030;2023-05-07T15:24:34;9.07;;;3.67;;
22622;SDS011;11478;51.094;7.030;2023-05-07T15:27:00;8.20;;;4.13;;
22622;SDS011;11478;51.094;7.030;2023-05-07T15:29:28;4.72;;;4.13;;
22622;SDS011;11478;51.094;7.030;2023-05-07T15:31:53;9.75;;;4.35;;
22622;SDS011;11478;51.094;7.030;2023-05-07T15:34:20;5.20;;;4.20;;
22622;SDS011;11478;51.094;7.030;2023-05-07T15:36:46;6.72;;;4.25;;
22622;SDS011;11478;51.094;7.030;2023-05-07T15:39:19;6.68;;;4.38;;
22622;SDS011;11478;51.094;7.030;2023-05-07T15:41:44;7.10;;;4.78;;
22622;SDS011;11478;51.094;7.030;2023-05-07T15:44:12;8.98;;;4.95;;
22622;SDS011;11478;51.094;7.030;2023-05-07T15:46:38;8.48;;;4.82;;
22622;SDS011;11478;51.094;7.030;2023-05-07T15:52:10;4.47;;;3.85;;
22622;SDS011;11478;51.094;7.030;2023-05-07T15:57:39;3.88;;;3.42;;
22622;SDS011;11478;51.094;7.030;2023-05-07T16:00:05;6.45;;;3.78;;
22622;SDS011;11478;51.094;7.030;2023-05-07T16:02:33;4.45;;;3.70;;
22622;SDS011;11478;51.094;7.030;2023-05-07T16:05:03;6.18;;;3.70;;
22622;SDS011;11478;51.094;7.030;2023-05-07T16:07:29;7.43;;;3.53;;